Time;durP1;ratioP1;P1;durP2;ratioP2;P2;SDS_P1;SDS_P2;PMS_P1;PMS_P2;Temp;Humidity;BMP_temperature;BMP_pressure;BME280_temperature;BME280_humidity;BME280_pressure;Samples;Min_cycle;Max_cycle;Signal;HPM_P1;HPM_P2
2024/02/11 00:01:58;;;;;;;15.85;7.28;;;9.50;99.90;;;;;;5043678;28;20037;-70
2024/02/11 00:04:24;;;;;;;21.83;7.95;;;9.50;99.90;;;;;;5042233;28;20037;-70
2024/02/11 00:06:50;;;;;;;11.50;6.72;;;9.50;99.90;;;;;;5028245;28;20505;-71
2024/02/11 00:09:17;;;;;;;12.73;6.05;;;9.50;99.90;;;;;;5046504;28;20033;-71
2024/02/11 00:11:44;;;;;;;10.93;5.80;;;9.50;99.90;;;;;;5041766;28;20040;-71
2024/02/11 00:14:10;;;;;;;11.20;6.32;;;9.50;99.90;;;;;;5044235;28;20045;-71
2024/02/11 00:16:36;;;;;;;9.57;6.05;;;9.50;99.90;;;;;;5043843;28;20037;-71
2024/02/11 00:19:02;;;;;;;16.42;7.28;;;9.40;99.90;;;;;;5046405;28;20029;-71
2024/02/11 00:21:28;;;;;;;11.95;5.28;;;9.50;99.90;;;;;;5042743;28;20024;-71
2024/02/11 00:23:53;;;;;;;12.90;5.90;;;9.40;99.90;;;;;;5042752;28;20512;-71
2024/02/11 00:26:19;;;;;;;10.68;6.38;;;9.40;99.90;;;;;;5038014;28;20187;-71
2024/02/11 00:28:45;;;;;;;17.48;5.50;;;9.40;99.90;;;;;;5028670;28;20029;-71
2024/02/11 00:31:12;;;;;;;11.73;6.18;;;9.40;99.90;;;;;;5041534;28;20021;-68
2024/02/11 00:33:39;;;;;;;10.40;5.93;;;9.40;99.90;;;;;;5028967;28;20029;-69
2024/02/11 00:36:05;;;;;;;11.65;6.00;;;9.40;99.90;;;;;;5032180;28;20493;-71
2024/02/11 00:38:31;;;;;;;18.50;6.00;;;9.40;99.90;;;;;;5046497;28;20115;-71
2024/02/11 00:40:57;;;;;;;17.00;6.25;;;9.30;99.90;;;;;;5032508;28;20037;-71
2024/02/11 00:43:23;;;;;;;11.63;5.65;;;9.30;99.90;;;;;;5045597;28;20037;-71
2024/02/11 00:45:49;;;;;;;11.75;5.60;;;9.30;99.90;;;;;;5030163;28;20037;-71
2024/02/11 00:48:14;;;;;;;11.55;6.13;;;9.30;99.90;;;;;;5048500;28;20111;-71
2024/02/11 00:50:40;;;;;;;9.85;5.57;;;9.40;99.90;;;;;;5038723;28;20036;-71
2024/02/11 00:53:06;;;;;;;11.60;6.20;;;9.30;99.90;;;;;;5036597;28;20475;-71
2024/02/11 00:55:35;;;;;;;8.38;5.93;;;9.30;99.90;;;;;;5045595;28;20030;-71
2024/02/11 00:58:03;;;;;;;18.80;8.02;;;9.30;99.90;;;;;;5019066;28;20379;-71
2024/02/11 01:00:29;;;;;;;11.73;7.28;;;9.30;99.90;;;;;;5034354;28;20114;-71
2024/02/11 01:02:56;;;;;;;12.98;6.32;;;9.30;99.90;;;;;;5039428;28;20076;-71
2024/02/11 01:05:22;;;;;;;13.60;6.25;;;9.30;99.90;;;;;;5032701;28;20034;-70
2024/02/11 01:07:50;;;;;;;16.55;7.05;;;9.30;99.90;;;;;;5030176;28;20428;-70
2024/02/11 01:10:21;;;;;;;16.08;7.22;;;9.30;99.90;;;;;;5035189;28;20496;-71
2024/02/11 01:12:47;;;;;;;14.25;5.32;;;9.30;99.90;;;;;;5045569;28;20037;-71
2024/02/11 01:15:16;;;;;;;15.68;7.35;;;9.40;99.90;;;;;;5032955;28;20492;-71
2024/02/11 01:17:43;;;;;;;15.57;7.45;;;9.40;99.90;;;;;;5039761;28;20033;-71
2024/02/11 01:20:13;;;;;;;19.08;6.30;;;9.40;99.90;;;;;;5034651;28;20044;-71
2024/02/11 01:22:43;;;;;;;14.73;8.10;;;9.40;99.90;;;;;;5036410;28;20033;-70
2024/02/11 01:25:19;;;;;;;18.40;9.02;;;9.50;99.90;;;;;;5040418;28;20029;-71
2024/02/11 01:27:49;;;;;;;15.13;7.00;;;9.40;99.90;;;;;;5037456;28;20047;-71
2024/02/11 01:30:17;;;;;;;11.25;6.28;;;9.40;99.90;;;;;;5035309;28;20021;-71
2024/02/11 01:32:44;;;;;;;15.52;6.65;;;9.40;99.90;;;;;;5039468;28;20025;-71
2024/02/11 01:35:12;;;;;;;22.52;5.32;;;9.40;99.90;;;;;;5042075;28;20036;-71
2024/02/11 01:37:40;;;;;;;14.80;6.78;;;9.40;99.90;;;;;;5042933;28;20025;-69
2024/02/11 01:40:17;;;;;;;14.07;7.20;;;9.40;99.90;;;;;;5027991;28;20053;-69
2024/02/11 01:42:47;;;;;;;13.85;7.07;;;9.40;99.90;;;;;;5043087;28;20029;-71
2024/02/11 01:45:14;;;;;;;12.43;6.50;;;9.40;99.90;;;;;;5039699;28;20021;-71
2024/02/11 01:47:43;;;;;;;14.18;6.22;;;9.50;99.90;;;;;;5047785;28;20025;-71
2024/02/11 01:50:15;;;;;;;18.92;7.68;;;9.50;99.90;;;;;;5034522;28;20043;-71
2024/02/11 01:52:41;;;;;;;13.65;6.65;;;9.50;99.90;;;;;;5042456;28;20030;-71
2024/02/11 01:55:17;;;;;;;16.50;5.97;;;9.50;99.90;;;;;;5043563;28;20021;-71
2024/02/11 01:57:45;;;;;;;21.90;7.93;;;9.50;99.90;;;;;;5041392;28;20492;-71
2024/02/11 02:00:17;;;;;;;18.17;8.32;;;9.50;99.90;;;;;;5029557;28;20132;-71
2024/02/11 02:02:44;;;;;;;18.23;7.30;;;9.50;99.90;;;;;;5045816;28;20060;-71
2024/02/11 02:05:10;;;;;;;11.90;7.45;;;9.50;99.90;;;;;;5042793;28;20037;-71
2024/02/11 02:07:38;;;;;;;27.08;9.05;;;9.40;99.90;;;;;;5027589;28;20559;-71
2024/02/11 02:10:04;;;;;;;12.77;7.65;;;9.40;99.90;;;;;;5045786;28;20025;-71
2024/02/11 02:12:31;;;;;;;19.95;10.10;;;9.40;99.90;;;;;;5043567;28;20037;-71
2024/02/11 02:14:58;;;;;;;12.27;6.78;;;9.40;99.90;;;;;;5042302;28;20021;-71
2024/02/11 02:17:23;;;;;;;13.30;6.95;;;9.40;99.90;;;;;;5030619;28;20029;-71
2024/02/11 02:19:51;;;;;;;17.55;7.05;;;9.40;99.90;;;;;;5040558;28;20036;-71
2024/02/11 02:22:19;;;;;;;12.60;6.70;;;9.40;99.90;;;;;;5044798;28;20033;-71
2024/02/11 02:24:45;;;;;;;18.45;7.35;;;9.40;99.90;;;;;;5039633;28;20033;-71
2024/02/11 02:27:13;;;;;;;13.25;6.63;;;9.30;99.90;;;;;;5043825;28;20056;-70
2024/02/11 02:29:39;;;;;;;13.50;7.95;;;9.30;99.90;;;;;;5036956;28;20033;-69
2024/02/11 02:32:05;;;;;;;13.43;6.93;;;9.30;99.90;;;;;;5040342;28;20087;-71
2024/02/11 02:34:31;;;;;;;22.45;8.38;;;9.30;99.90;;;;;;5032065;28;20461;-71
2024/02/11 02:36:57;;;;;;;16.08;7.30;;;9.30;99.90;;;;;;5036160;28;20039;-71
2024/02/11 02:39:24;;;;;;;16.33;8.35;;;9.40;99.90;;;;;;5014777;28;20025;-71
2024/02/11 02:41:50;;;;;;;18.15;7.68;;;9.40;99.90;;;;;;5041389;28;20040;-71
2024/02/11 02:44:16;;;;;;;14.93;7.10;;;9.40;99.90;;;;;;5033628;28;20030;-71
2024/02/11 02:46:42;;;;;;;16.02;7.60;;;9.50;99.90;;;;;;5018513;28;20037;-71
2024/02/11 02:49:07;;;;;;;12.98;6.95;;;9.50;99.90;;;;;;5032350;28;20486;-71
2024/02/11 02:51:33;;;;;;;11.68;7.00;;;9.50;99.90;;;;;;5035571;28;20025;-71
2024/02/11 02:54:03;;;;;;;24.00;8.70;;;9.60;99.90;;;;;;5032082;28;20021;-72
2024/02/11 02:56:31;;;;;;;17.80;7.53;;;9.60;99.90;;;;;;5035791;28;20083;-71
2024/02/11 02:58:58;;;;;;;24.55;8.25;;;9.70;99.90;;;;;;5047699;28;20112;-71
2024/02/11 03:01:27;;;;;;;10.52;6.03;;;9.60;99.90;;;;;;5036313;28;20040;-71
2024/02/11 03:03:54;;;;;;;9.75;6.22;;;9.70;99.90;;;;;;5037408;28;20030;-71
2024/02/11 03:06:19;;;;;;;8.77;4.75;;;9.60;99.90;;;;;;5022247;28;20120;-71
2024/02/11 03:08:46;;;;;;;8.43;3.67;;;9.60;99.90;;;;;;5027065;28;20107;-71
2024/02/11 03:11:12;;;;;;;3.65;2.30;;;9.60;99.90;;;;;;5033976;28;20029;-71
2024/02/11 03:13:38;;;;;;;3.95;2.08;;;9.50;99.90;;;;;;5030893;28;20091;-71
2024/02/11 03:16:04;;;;;;;5.03;2.55;;;9.60;99.90;;;;;;5040765;28;20039;-71
2024/02/11 03:18:30;;;;;;;4.90;2.03;;;9.50;99.90;;;;;;5031520;28;20029;-71
2024/02/11 03:20:56;;;;;;;4.20;2.30;;;9.50;99.90;;;;;;5041176;28;20133;-71
2024/02/11 03:23:21;;;;;;;0.93;0.73;;;9.50;99.90;;;;;;5041312;28;20398;-71
2024/02/11 03:25:47;;;;;;;1.58;1.05;;;9.40;99.90;;;;;;5031803;28;20035;-71
2024/02/11 03:28:13;;;;;;;0.85;0.57;;;9.30;99.90;;;;;;5043042;28;20101;-72
2024/02/11 03:30:38;;;;;;;0.30;0.25;;;9.30;99.90;;;;;;5019711;28;20032;-72
2024/02/11 03:33:04;;;;;;;2.28;0.50;;;9.30;99.90;;;;;;5034317;28;20371;-72
2024/02/11 03:35:30;;;;;;;0.28;0.28;;;9.20;99.90;;;;;;5022230;28;20465;-72
2024/02/11 03:37:56;;;;;;;0.20;0.20;;;9.20;99.90;;;;;;5033793;28;20038;-72
2024/02/11 03:40:24;;;;;;;0.30;0.30;;;9.20;99.90;;;;;;5038201;28;20104;-72
2024/02/11 03:42:50;;;;;;;0.30;0.28;;;9.10;99.90;;;;;;5024037;28;20041;-72
2024/02/11 03:45:18;;;;;;;0.43;0.20;;;9.10;99.90;;;;;;5033023;28;20041;-71
2024/02/11 03:47:45;;;;;;;0.10;0.10;;;9.00;99.90;;;;;;5033883;28;20029;-72
2024/02/11 03:50:13;;;;;;;0.20;0.10;;;8.90;99.90;;;;;;5026718;28;20029;-71
2024/02/11 03:52:40;;;;;;;0.20;0.20;;;8.90;99.90;;;;;;5040904;28;20037;-71
2024/02/11 03:55:07;;;;;;;0.65;0.20;;;8.90;99.90;;;;;;5031029;28;20022;-71
2024/02/11 03:57:34;;;;;;;0.20;0.15;;;8.80;99.90;;;;;;5028360;28;20430;-71
2024/02/11 04:00:19;;;;;;;0.13;0.10;;;8.80;99.90;;;;;;5036679;28;20082;-71
2024/02/11 04:02:45;;;;;;;0.35;0.35;;;8.80;99.90;;;;;;5029254;28;20120;-71
2024/02/11 04:05:15;;;;;;;0.00;0.00;;;8.70;99.90;;;;;;5039813;28;20108;-71
2024/02/11 04:07:45;;;;;;;0.10;0.10;;;8.70;99.90;;;;;;5034316;28;20038;-71
2024/02/11 04:10:28;;;;;;;1.08;0.63;;;8.70;99.90;;;;;;5031609;28;20044;-72
2024/02/11 04:12:54;;;;;;;0.05;0.05;;;8.60;99.90;;;;;;5033791;28;20554;-71
2024/02/11 04:15:24;;;;;;;0.20;0.10;;;8.60;99.90;;;;;;5038635;28;20039;-71
2024/02/11 04:17:53;;;;;;;0.03;0.03;;;8.50;99.90;;;;;;5032742;28;20060;-71
2024/02/11 04:20:29;;;;;;;0.10;0.10;;;8.50;99.90;;;;;;5034451;28;20029;-71
2024/02/11 04:23:00;;;;;;;0.63;0.43;;;8.50;99.90;;;;;;5034069;28;20033;-71
2024/02/11 04:25:34;;;;;;;0.30;0.20;;;8.50;99.90;;;;;;5030688;28;20021;-71
2024/02/11 04:28:07;;;;;;;0.00;0.00;;;8.40;99.90;;;;;;5034183;28;20120;-71
2024/02/11 04:30:37;;;;;;;0.20;0.20;;;8.40;99.90;;;;;;5036851;28;20033;-72
2024/02/11 04:33:04;;;;;;;0.30;0.28;;;8.30;99.90;;;;;;5038265;28;20103;-72
2024/02/11 04:35:31;;;;;;;0.65;0.30;;;8.30;99.90;;;;;;5033934;28;20113;-71
2024/02/11 04:37:59;;;;;;;0.90;0.52;;;8.30;99.90;;;;;;5037139;28;20113;-70
2024/02/11 04:40:25;;;;;;;1.65;0.70;;;8.30;99.90;;;;;;5033422;28;20021;-71
2024/02/11 04:42:56;;;;;;;1.40;0.68;;;8.20;99.90;;;;;;5062429;28;20056;-70
2024/02/11 04:45:25;;;;;;;0.57;0.57;;;8.20;99.90;;;;;;5043900;28;20112;-71
2024/02/11 04:48:02;;;;;;;0.90;0.45;;;8.20;99.90;;;;;;5047720;28;20041;-71
2024/02/11 04:50:29;;;;;;;0.50;0.50;;;8.20;99.90;;;;;;5041900;28;20559;-70
2024/02/11 04:52:58;;;;;;;1.73;0.73;;;8.10;99.90;;;;;;5047466;28;20032;-72
2024/02/11 04:55:28;;;;;;;1.17;0.70;;;8.10;99.90;;;;;;5043511;28;20094;-72
2024/02/11 04:57:58;;;;;;;1.10;0.70;;;8.10;99.90;;;;;;5044070;28;20032;-71
2024/02/11 05:00:25;;;;;;;2.95;1.33;;;8.10;99.90;;;;;;5044177;28;20021;-70
2024/02/11 05:02:58;;;;;;;1.00;0.68;;;8.10;99.90;;;;;;5047188;28;20075;-70
2024/02/11 05:05:30;;;;;;;4.45;0.68;;;8.00;99.90;;;;;;5048687;28;20094;-70
2024/02/11 05:08:03;;;;;;;1.20;0.63;;;8.00;99.90;;;;;;5042528;28;20033;-70
2024/02/11 05:10:37;;;;;;;1.70;0.98;;;8.00;99.90;;;;;;5044164;28;20052;-70
2024/02/11 05:13:08;;;;;;;3.03;1.35;;;7.90;99.90;;;;;;5043402;28;20032;-71
2024/02/11 05:15:40;;;;;;;4.07;1.13;;;7.90;99.90;;;;;;5024896;28;20079;-73
2024/02/11 05:18:09;;;;;;;2.17;1.25;;;7.90;99.90;;;;;;5044092;28;20546;-73
2024/02/11 05:20:36;;;;;;;3.90;1.67;;;7.80;99.90;;;;;;5055536;28;20021;-73
2024/02/11 05:23:05;;;;;;;1.60;1.13;;;7.80;99.90;;;;;;5045535;28;20026;-72
2024/02/11 05:25:31;;;;;;;6.25;2.00;;;7.80;99.90;;;;;;5040488;28;20028;-72
2024/02/11 05:28:04;;;;;;;3.17;1.83;;;7.80;99.90;;;;;;5050011;28;20098;-72
2024/02/11 05:30:37;;;;;;;4.22;1.35;;;7.80;99.90;;;;;;5044228;28;20373;-72
2024/02/11 05:33:06;;;;;;;5.18;1.70;;;7.80;99.90;;;;;;5047296;28;20018;-72
2024/02/11 05:35:35;;;;;;;3.55;2.08;;;7.80;99.90;;;;;;5048075;28;20017;-71
2024/02/11 05:38:05;;;;;;;3.47;2.00;;;7.80;99.90;;;;;;5047258;28;20151;-72
2024/02/11 05:40:35;;;;;;;3.90;2.38;;;7.70;99.90;;;;;;5048185;28;20079;-71
2024/02/11 05:43:02;;;;;;;8.27;1.75;;;7.70;99.90;;;;;;5058844;28;20037;-72
2024/02/11 05:45:28;;;;;;;7.70;2.58;;;7.70;99.90;;;;;;5050552;28;20037;-74
2024/02/11 05:47:55;;;;;;;3.50;1.73;;;7.70;99.90;;;;;;5049259;28;20066;-72
2024/02/11 05:50:22;;;;;;;2.53;1.17;;;7.70;99.90;;;;;;5047333;28;20025;-71
2024/02/11 05:52:50;;;;;;;2.47;1.17;;;7.70;99.90;;;;;;5049910;28;20099;-72
2024/02/11 05:55:16;;;;;;;7.90;1.88;;;7.70;99.90;;;;;;5039741;28;20017;-72
2024/02/11 05:57:43;;;;;;;3.08;1.60;;;7.70;99.90;;;;;;5048863;28;20025;-72
2024/02/11 06:00:14;;;;;;;3.53;2.45;;;7.70;99.90;;;;;;5031824;28;20017;-72
2024/02/11 06:02:41;;;;;;;;;;;7.60;99.90;;;;;;5043735;28;20033;-72
2024/02/11 06:05:12;;;;;;;2.45;1.75;;;7.60;99.90;;;;;;5049237;28;19909;-72
2024/02/11 06:08:03;;;;;;;7.97;2.10;;;7.60;99.90;;;;;;5040824;28;20569;-72
2024/02/11 06:10:30;;;;;;;3.80;2.42;;;7.60;99.90;;;;;;5041005;28;20040;-72
2024/02/11 06:12:59;;;;;;;5.70;2.30;;;7.50;99.90;;;;;;5045871;28;20025;-71
2024/02/11 06:15:27;;;;;;;6.88;2.40;;;7.50;99.90;;;;;;5032957;28;20023;-71
2024/02/11 06:17:53;;;;;;;5.80;2.05;;;7.50;99.90;;;;;;5038061;28;20043;-72
2024/02/11 06:20:20;;;;;;;2.70;1.35;;;7.50;99.90;;;;;;5049459;28;20113;-72
2024/02/11 06:22:52;;;;;;;7.82;2.58;;;7.50;99.90;;;;;;5048227;28;20033;-72
2024/02/11 06:25:22;;;;;;;1.90;1.60;;;7.50;99.90;;;;;;5037164;28;20107;-72
2024/02/11 06:27:49;;;;;;;3.08;1.58;;;7.40;99.90;;;;;;5038646;28;20084;-71
2024/02/11 06:30:17;;;;;;;2.50;1.73;;;7.40;99.90;;;;;;5028684;28;20029;-72
2024/02/11 06:32:50;;;;;;;1.58;1.23;;;7.40;99.90;;;;;;5041119;28;20120;-72
2024/02/11 06:35:17;;;;;;;1.98;1.52;;;7.40;99.90;;;;;;5040061;28;20090;-72
2024/02/11 06:37:46;;;;;;;4.07;2.60;;;7.40;99.90;;;;;;5038861;28;20128;-72
2024/02/11 06:40:25;;;;;;;3.10;1.27;;;7.30;99.90;;;;;;5031387;28;20082;-72
2024/02/11 06:42:52;;;;;;;3.72;1.60;;;7.40;99.90;;;;;;5037433;28;20072;-74
2024/02/11 06:45:19;;;;;;;3.38;1.35;;;7.40;99.90;;;;;;5037021;28;20021;-73
2024/02/11 06:47:46;;;;;;;6.22;1.75;;;7.30;99.90;;;;;;5033652;28;20029;-72
2024/02/11 06:50:18;;;;;;;2.67;1.27;;;7.30;99.90;;;;;;5028257;28;20036;-72
2024/02/11 06:52:47;;;;;;;3.70;1.33;;;7.30;99.90;;;;;;5033336;28;20029;-72
2024/02/11 06:55:15;;;;;;;2.55;2.35;;;7.30;99.90;;;;;;5049772;28;20602;-72
2024/02/11 06:57:42;;;;;;;2.85;1.33;;;7.30;99.90;;;;;;5039974;28;20025;-72
2024/02/11 07:00:09;;;;;;;2.10;1.30;;;7.30;99.90;;;;;;5032869;28;20029;-72
2024/02/11 07:02:36;;;;;;;2.00;1.50;;;7.30;99.90;;;;;;5036856;28;20409;-72
2024/02/11 07:05:04;;;;;;;2.22;1.30;;;7.30;99.90;;;;;;5031040;28;20029;-71
2024/02/11 07:07:30;;;;;;;3.70;2.25;;;7.40;99.90;;;;;;5031938;28;20400;-72
2024/02/11 07:09:55;;;;;;;5.70;2.10;;;7.40;99.90;;;;;;5031016;28;20037;-71
2024/02/11 07:12:24;;;;;;;3.42;2.03;;;7.40;99.90;;;;;;5035974;28;20037;-72
2024/02/11 07:14:50;;;;;;;1.80;1.33;;;7.40;99.90;;;;;;5037720;28;20528;-69
2024/02/11 07:17:16;;;;;;;7.60;1.55;;;7.40;99.90;;;;;;5037627;28;20044;-68
2024/02/11 07:19:43;;;;;;;2.75;2.05;;;7.40;99.90;;;;;;5032428;28;20022;-69
2024/02/11 07:22:09;;;;;;;3.10;1.90;;;7.50;99.90;;;;;;5035755;28;20029;-71
2024/02/11 07:24:37;;;;;;;2.05;1.45;;;7.50;99.90;;;;;;5040325;28;20130;-68
2024/02/11 07:27:06;;;;;;;6.00;2.78;;;7.40;99.90;;;;;;5041075;28;20041;-69
2024/02/11 07:29:33;;;;;;;4.85;1.77;;;7.40;99.90;;;;;;5032944;28;20040;-69
2024/02/11 07:31:59;;;;;;;2.92;1.88;;;7.40;99.90;;;;;;5041220;28;20040;-68
2024/02/11 07:34:27;;;;;;;6.20;2.00;;;7.40;99.90;;;;;;5044256;28;20017;-69
2024/02/11 07:36:52;;;;;;;3.78;2.53;;;7.50;99.90;;;;;;5041698;28;20048;-69
2024/02/11 07:39:18;;;;;;;2.35;1.55;;;7.50;99.90;;;;;;5039746;28;20116;-68
2024/02/11 07:41:45;;;;;;;4.30;2.53;;;7.50;99.90;;;;;;5040649;28;20032;-69
2024/02/11 07:44:14;;;;;;;4.13;2.35;;;7.60;99.90;;;;;;5029735;28;20059;-68
2024/02/11 07:46:42;;;;;;;2.92;1.88;;;7.50;99.90;;;;;;5043179;28;20040;-69
2024/02/11 07:49:10;;;;;;;4.05;1.95;;;7.50;99.90;;;;;;5036249;28;20447;-69
2024/02/11 07:51:37;;;;;;;6.13;1.83;;;7.60;99.90;;;;;;5036194;28;20122;-68
2024/02/11 07:54:03;;;;;;;2.72;1.58;;;7.50;99.90;;;;;;5035791;28;20038;-68
2024/02/11 07:56:29;;;;;;;4.72;1.88;;;7.50;99.90;;;;;;5054672;28;20057;-67
2024/02/11 07:58:55;;;;;;;7.70;2.88;;;7.50;99.90;;;;;;5031128;28;20060;-68
2024/02/11 08:01:22;;;;;;;3.88;2.10;;;7.50;99.90;;;;;;5036331;28;20037;-68
2024/02/11 08:03:48;;;;;;;10.18;1.85;;;7.60;99.90;;;;;;5031115;28;20029;-68
2024/02/11 08:06:14;;;;;;;3.45;2.10;;;7.60;99.90;;;;;;5035743;28;20479;-67
2024/02/11 08:08:39;;;;;;;2.10;1.33;;;7.60;99.90;;;;;;5040043;28;20029;-68
2024/02/11 08:11:05;;;;;;;4.18;1.92;;;7.60;99.90;;;;;;5033671;28;20029;-69
2024/02/11 08:13:34;;;;;;;4.15;2.40;;;7.60;99.90;;;;;;5031808;28;20470;-68
2024/02/11 08:16:00;;;;;;;1.90;1.30;;;7.60;99.90;;;;;;5033956;28;20030;-68
2024/02/11 08:18:26;;;;;;;3.08;1.73;;;7.60;99.90;;;;;;5041793;28;20113;-68
2024/02/11 08:20:52;;;;;;;6.15;2.17;;;7.70;99.90;;;;;;5033123;28;20057;-68
2024/02/11 08:23:18;;;;;;;3.97;1.83;;;7.70;99.90;;;;;;5033763;28;20611;-69
2024/02/11 08:25:44;;;;;;;6.82;2.28;;;7.80;99.90;;;;;;5039369;28;20039;-69
2024/02/11 08:28:09;;;;;;;3.35;1.35;;;7.80;99.90;;;;;;5035032;28;20440;-70
2024/02/11 08:30:36;;;;;;;1.85;1.30;;;7.80;99.90;;;;;;5033389;28;20112;-69
2024/02/11 08:33:02;;;;;;;2.13;1.30;;;7.80;99.90;;;;;;5034081;28;20025;-70
2024/02/11 08:35:27;;;;;;;5.28;2.22;;;7.80;99.90;;;;;;5031767;28;20112;-70
2024/02/11 08:37:55;;;;;;;6.63;2.00;;;7.80;99.90;;;;;;5027730;28;20119;-68
2024/02/11 08:40:21;;;;;;;4.78;2.97;;;7.80;99.90;;;;;;5033400;28;20460;-68
2024/02/11 08:42:47;;;;;;;5.60;2.10;;;7.90;99.90;;;;;;5037942;28;20040;-69
2024/02/11 08:45:14;;;;;;;3.75;2.25;;;8.00;99.90;;;;;;5039030;28;20520;-69
2024/02/11 08:47:39;;;;;;;3.28;1.92;;;8.00;99.90;;;;;;5035359;28;20026;-69
2024/02/11 08:50:06;;;;;;;3.08;2.00;;;8.00;99.90;;;;;;5041477;28;20048;-69
2024/02/11 08:52:32;;;;;;;2.42;1.63;;;8.00;99.90;;;;;;5038149;28;20033;-69
2024/02/11 08:54:59;;;;;;;3.60;2.50;;;8.00;99.90;;;;;;5033072;28;20040;-68
2024/02/11 08:57:26;;;;;;;6.55;1.80;;;8.10;99.90;;;;;;5037629;28;20021;-69
2024/02/11 08:59:54;;;;;;;3.53;2.10;;;8.10;99.90;;;;;;5034599;28;20033;-70
2024/02/11 09:02:22;;;;;;;4.00;2.25;;;8.10;99.90;;;;;;5036705;28;20037;-69
2024/02/11 09:04:48;;;;;;;6.15;2.67;;;8.10;99.90;;;;;;5049233;28;20538;-56
2024/02/11 09:07:13;;;;;;;7.70;3.00;;;8.20;99.90;;;;;;5039965;28;20045;-76
2024/02/11 09:09:39;;;;;;;3.33;1.02;;;8.20;99.90;;;;;;5029368;28;20112;-67
2024/02/11 09:12:07;;;;;;;2.35;1.73;;;8.20;99.90;;;;;;5038492;28;20468;-68
2024/02/11 09:14:36;;;;;;;5.90;2.42;;;8.20;99.90;;;;;;5042147;28;20033;-70
2024/02/11 09:17:02;;;;;;;6.35;2.15;;;8.30;99.90;;;;;;5036496;28;20428;-74
2024/02/11 09:19:29;;;;;;;4.22;1.75;;;8.40;99.90;;;;;;5044302;28;20040;-72
2024/02/11 09:21:59;;;;;;;3.45;1.65;;;8.40;99.90;;;;;;5045463;28;20082;-69
2024/02/11 09:24:25;;;;;;;7.32;2.70;;;8.50;99.90;;;;;;5041010;28;20017;-52
2024/02/11 09:26:51;;;;;;;3.50;1.98;;;8.70;99.90;;;;;;5046289;28;20078;-54
2024/02/11 09:29:20;;;;;;;4.65;2.60;;;8.70;99.90;;;;;;5047086;28;20029;-54
2024/02/11 09:31:46;;;;;;;2.65;1.60;;;8.80;99.90;;;;;;5042127;28;20469;-56
2024/02/11 09:34:12;;;;;;;3.80;2.15;;;8.60;99.90;;;;;;5040844;28;20038;-55
2024/02/11 09:36:41;;;;;;;2.67;1.50;;;8.50;99.90;;;;;;5034349;28;20041;-56
2024/02/11 09:39:10;;;;;;;2.15;1.63;;;8.70;99.90;;;;;;5064383;28;20385;-55
2024/02/11 09:41:36;;;;;;;0.75;0.55;;;8.70;99.90;;;;;;5034493;28;20060;-53
2024/02/11 09:44:04;;;;;;;3.83;1.88;;;8.60;99.90;;;;;;5036887;28;20428;-54
2024/02/11 09:46:37;;;;;;;5.38;2.28;;;8.80;99.90;;;;;;5033775;28;20029;-54
2024/02/11 09:49:18;;;;;;;3.85;2.40;;;8.80;99.90;;;;;;5036902;28;20033;-56
2024/02/11 09:51:51;;;;;;;2.53;1.50;;;8.80;99.90;;;;;;5040651;28;20018;-56
2024/02/11 09:54:18;;;;;;;4.00;1.67;;;8.90;99.90;;;;;;5036560;28;20551;-55
2024/02/11 09:56:44;;;;;;;5.13;2.33;;;8.90;99.90;;;;;;5033005;28;20176;-57
2024/02/11 09:59:10;;;;;;;9.52;2.15;;;9.00;99.90;;;;;;5041369;28;20085;-52
2024/02/11 10:01:38;;;;;;;3.33;2.05;;;9.00;99.90;;;;;;5034430;28;20112;-54
2024/02/11 10:04:06;;;;;;;3.85;2.05;;;9.10;99.90;;;;;;5035211;28;20065;-57
2024/02/11 10:06:37;;;;;;;9.43;2.13;;;9.10;99.90;;;;;;5034035;28;20536;-52
2024/02/11 10:09:18;;;;;;;8.38;1.23;;;9.20;99.90;;;;;;5036992;28;20037;-54
2024/02/11 10:11:45;;;;;;;4.05;2.17;;;9.20;99.90;;;;;;5041799;28;20644;-51
2024/02/11 10:14:13;;;;;;;3.42;1.98;;;9.20;99.90;;;;;;5034853;28;20056;-53
2024/02/11 10:16:42;;;;;;;4.32;1.77;;;9.10;99.90;;;;;;5041503;28;20112;-65
2024/02/11 10:19:09;;;;;;;2.88;1.20;;;9.10;99.90;;;;;;5040796;28;20033;-71
2024/02/11 10:21:35;;;;;;;9.90;2.15;;;9.10;99.90;;;;;;5032343;28;20103;-71
2024/02/11 10:24:05;;;;;;;4.13;1.80;;;9.20;99.90;;;;;;5040119;28;20128;-71
2024/02/11 10:26:35;;;;;;;4.45;1.60;;;9.30;99.90;;;;;;5042372;28;20044;-71
2024/02/11 10:29:04;;;;;;;3.20;1.60;;;9.50;99.90;;;;;;5036787;28;20433;-71
2024/02/11 10:31:30;;;;;;;3.17;1.40;;;9.80;99.90;;;;;;5034937;28;20021;-71
2024/02/11 10:33:59;;;;;;;5.80;2.03;;;9.90;99.90;;;;;;5035013;28;20480;-71
2024/02/11 10:36:26;;;;;;;3.58;2.33;;;10.30;99.90;;;;;;5048428;28;20496;-71
2024/02/11 10:38:54;;;;;;;6.22;2.08;;;11.00;99.90;;;;;;5034986;28;20033;-71
2024/02/11 10:41:22;;;;;;;3.83;1.83;;;11.40;99.90;;;;;;5043000;28;20033;-70
2024/02/11 10:43:52;;;;;;;7.07;1.70;;;11.30;99.90;;;;;;5034797;28;20986;-70
2024/02/11 10:46:20;;;;;;;6.63;1.90;;;11.10;99.90;;;;;;5035846;28;20033;-70
2024/02/11 10:48:47;;;;;;;7.53;1.42;;;10.80;99.90;;;;;;5035446;28;20033;-73
2024/02/11 10:51:25;;;;;;;2.25;1.38;;;10.50;99.90;;;;;;5051401;28;20507;-73
2024/02/11 10:54:03;;;;;;;1.90;1.10;;;10.30;99.90;;;;;;5041095;28;20052;-73
2024/02/11 10:56:30;;;;;;;4.63;1.98;;;10.20;99.90;;;;;;5049887;28;20046;-74
2024/02/11 10:59:06;;;;;;;4.78;1.88;;;10.20;99.90;;;;;;5035097;28;20029;-74
2024/02/11 11:01:35;;;;;;;2.97;1.65;;;10.00;99.90;;;;;;5048123;28;20032;-75
2024/02/11 11:04:02;;;;;;;3.90;1.42;;;9.80;99.90;;;;;;5035698;28;20421;-74
2024/02/11 11:06:31;;;;;;;3.65;1.50;;;9.70;99.90;;;;;;5033303;28;20029;-74
2024/02/11 11:09:00;;;;;;;2.80;1.35;;;9.70;99.90;;;;;;5035122;28;20056;-74
2024/02/11 11:11:27;;;;;;;2.63;1.70;;;9.70;99.90;;;;;;5048620;28;20043;-74
2024/02/11 11:13:57;;;;;;;5.57;1.40;;;9.80;99.90;;;;;;5033394;28;20546;-74
2024/02/11 11:16:35;;;;;;;8.63;1.48;;;9.80;99.90;;;;;;5018247;28;20029;-75
2024/02/11 11:19:12;;;;;;;3.05;1.67;;;9.70;99.90;;;;;;5040869;28;20071;-75
2024/02/11 11:21:38;;;;;;;2.97;1.70;;;9.80;99.90;;;;;;5041035;28;20048;-74
2024/02/11 11:24:04;;;;;;;4.43;1.23;;;10.30;99.90;;;;;;5015655;28;20032;-75
2024/02/11 11:26:30;;;;;;;2.88;2.13;;;10.80;99.90;;;;;;5031967;28;20029;-75
2024/02/11 11:29:04;;;;;;;1.63;0.90;;;10.70;99.90;;;;;;5036410;28;20044;-76
2024/02/11 11:31:34;;;;;;;3.17;1.38;;;10.60;99.90;;;;;;5046559;28;20076;-76
2024/02/11 11:34:01;;;;;;;9.40;2.38;;;10.50;99.90;;;;;;5034882;28;20056;-75
2024/02/11 11:36:28;;;;;;;7.25;1.83;;;10.40;99.90;;;;;;5041204;28;20067;-76
2024/02/11 11:39:06;;;;;;;2.60;1.75;;;10.40;99.90;;;;;;5040635;28;20132;-73
2024/02/11 11:41:33;;;;;;;6.68;2.10;;;10.00;99.90;;;;;;5036142;28;20052;-73
2024/02/11 11:44:02;;;;;;;5.38;1.80;;;10.10;99.90;;;;;;5041395;28;20029;-74
2024/02/11 11:46:35;;;;;;;7.50;2.28;;;10.00;99.90;;;;;;5048321;28;20056;-74
2024/02/11 11:49:01;;;;;;;4.60;1.60;;;10.00;99.90;;;;;;5037344;28;20037;-76
2024/02/11 11:51:28;;;;;;;10.02;1.63;;;9.90;99.90;;;;;;5040914;28;20359;-73
2024/02/11 11:53:54;;;;;;;1.50;0.90;;;9.80;99.90;;;;;;5035507;28;20044;-74
2024/02/11 11:56:20;;;;;;;4.20;1.48;;;9.80;99.90;;;;;;5038627;28;20025;-73
2024/02/11 11:58:52;;;;;;;4.07;1.48;;;9.80;99.90;;;;;;5045550;28;20108;-75
2024/02/11 12:01:22;;;;;;;4.25;2.00;;;9.80;99.90;;;;;;5046039;28;20029;-74
2024/02/11 12:03:49;;;;;;;2.72;1.50;;;9.70;99.90;;;;;;5033081;28;20043;-77
2024/02/11 12:06:15;;;;;;;9.57;1.55;;;9.70;99.90;;;;;;5034650;28;20389;-73
2024/02/11 12:08:41;;;;;;;12.38;2.45;;;9.70;99.90;;;;;;5040733;28;20041;-68
2024/02/11 12:11:07;;;;;;;2.95;1.90;;;9.70;99.90;;;;;;5047546;28;20034;-75
2024/02/11 12:13:36;;;;;;;4.78;2.35;;;9.80;99.90;;;;;;5031412;28;20511;-77
2024/02/11 12:16:13;;;;;;;10.27;1.40;;;9.80;99.90;;;;;;5022351;28;20032;-76
2024/02/11 12:18:40;;;;;;;3.40;1.70;;;9.80;99.90;;;;;;5031135;28;20013;-70
2024/02/11 12:21:10;;;;;;;3.92;1.60;;;9.70;99.90;;;;;;5032487;28;20075;-70
2024/02/11 12:23:36;;;;;;;8.25;1.73;;;9.70;99.90;;;;;;5013619;28;20036;-73
2024/02/11 12:26:04;;;;;;;5.45;1.60;;;9.60;99.90;;;;;;5050757;28;20085;-71
2024/02/11 12:28:32;;;;;;;3.53;1.42;;;9.60;99.90;;;;;;5041368;28;20041;-71
2024/02/11 12:31:13;;;;;;;2.97;1.13;;;9.60;99.90;;;;;;5043897;28;20033;-71
2024/02/11 12:33:44;;;;;;;4.75;1.45;;;9.60;99.90;;;;;;5046580;28;20370;-72
2024/02/11 12:36:14;;;;;;;14.68;1.23;;;9.60;99.90;;;;;;5031713;28;20108;-72
2024/02/11 12:38:45;;;;;;;1.40;1.00;;;9.60;99.90;;;;;;5029782;28;20021;-72
2024/02/11 12:41:13;;;;;;;2.72;1.42;;;9.60;99.90;;;;;;5031275;28;20061;-71
2024/02/11 12:43:43;;;;;;;6.70;2.33;;;9.60;99.90;;;;;;5023375;28;20041;-70
2024/02/11 12:46:09;;;;;;;4.53;1.60;;;9.80;99.90;;;;;;5031336;28;20130;-71
2024/02/11 12:48:42;;;;;;;4.88;1.45;;;9.90;99.90;;;;;;5049928;28;20488;-71
2024/02/11 12:51:13;;;;;;;2.47;1.48;;;9.80;99.90;;;;;;5035899;28;20040;-71
2024/02/11 12:53:40;;;;;;;5.07;1.77;;;9.80;99.90;;;;;;5032431;28;20021;-71
2024/02/11 12:56:10;;;;;;;5.18;1.58;;;9.70;99.90;;;;;;5041362;28;20037;-70
2024/02/11 12:58:37;;;;;;;5.90;1.83;;;9.70;99.90;;;;;;5051979;28;20017;-72